Aérodrome :
LOGIN :

S'inscrire | Disclaimer

   EN    FR    IT 

 










Légende :    VFR   VFR Marginal   IFR   IFR Intensif   IFR Très Intensif
Visi : 
Plafond : 
>= 8 km
>= 3000ft
5 à 8 km
1000 à 3000 ft
1500m à 5 km
500 à 1000 ft
800 à 1500m
200 à 500 ft
< 800m
< 200 ft
Symboles :   Orages  Brouillard  Fortes neiges  Fortes précipitations  Vent > 20 kt
SIGMETs :   Divers  Orages  Givrage  Turbulence  Onde Orograph.  Cendres Volcan.






- Altitude de l'aérodrome : 325 ft
- Code IATA : POX


LFPT - Pontoise

DERNIER METAR :
  • 290800Z AUTO 04009KT 360V070 9999 SCT028 BKN034 BKN040 12/05 Q1018

METARs EXPIRÉS :
  • 290730Z AUTO 03010KT 9999 FEW023 12/06 Q1018
  • 290700Z AUTO 02010KT CAVOK 12/07 Q1018
  • 290630Z AUTO 02010KT CAVOK 11/06 Q1018
  • 290600Z AUTO 02010KT CAVOK 10/06 Q1018
  • 290530Z AUTO 01007KT CAVOK 08/06 Q1018

TAF N/A
ATIS : +33 1 30 30 52 08



MET'MAP, la Météo Aéronautique d'un coup d'oeil ! - Copyright ORBIFLY Décembre 2007 - Disclaimer

ORBIFLY MET'MAP TEAM :

Programmation & Développement : Alexandra Zaïnal
Sur une idée originale de : Baudouin d'Aumeries
Soutien technique & logistique : Manuel Goepfert
Assistance : Marc-Olivier Méhu

Contact : metmap@orbifly.com




SOURCES & CREDITS :

   NOAA